Time;durP1;ratioP1;P1;durP2;ratioP2;P2;SDS_P1;SDS_P2;PMS_P1;PMS_P2;Temp;Humidity;BMP_temperature;BMP_pressure;BME280_temperature;BME280_humidity;BME280_pressure;Samples;Min_cycle;Max_cycle;Signal;HPM_P1;HPM_P2
2021/07/08 00:00:23;;;;;;;9.35;3.70;;;;;;;;;;5037757;28;20021;-64
2021/07/08 00:02:48;;;;;;;7.88;3.47;;;;;;;;;;5041035;28;20037;-64
2021/07/08 00:05:14;;;;;;;10.90;3.50;;;;;;;;;;5037589;28;20488;-64
2021/07/08 00:07:40;;;;;;;6.20;3.70;;;;;;;;;;5037449;28;20021;-64
2021/07/08 00:10:09;;;;;;;10.68;3.65;;;;;;;;;;5045754;28;20500;-64
2021/07/08 00:12:34;;;;;;;6.43;3.53;;;;;;;;;;5039676;28;20036;-64
2021/07/08 00:15:00;;;;;;;7.35;3.33;;;;;;;;;;5033217;28;20029;-64
2021/07/08 00:17:25;;;;;;;9.30;3.38;;;;;;;;;;5032291;28;20051;-64
2021/07/08 00:19:50;;;;;;;17.50;3.73;;;;;;;;;;5033373;28;20224;-64
2021/07/08 00:22:15;;;;;;;8.13;3.80;;;;;;;;;;5033183;28;20318;-63
2021/07/08 00:24:40;;;;;;;8.70;3.80;;;;;;;;;;5033271;28;20256;-64
2021/07/08 00:27:05;;;;;;;7.37;3.30;;;;;;;;;;5032028;28;20105;-63
2021/07/08 00:29:31;;;;;;;9.63;3.83;;;;;;;;;;5032250;28;20664;-63
2021/07/08 00:31:56;;;;;;;13.10;3.83;;;;;;;;;;5033374;28;20022;-63
2021/07/08 00:34:21;;;;;;;11.97;3.50;;;;;;;;;;5033573;28;20691;-64
2021/07/08 00:36:46;;;;;;;11.57;3.97;;;;;;;;;;5033043;28;20271;-63
2021/07/08 00:39:11;;;;;;;8.83;3.67;;;;;;;;;;5033077;28;20355;-64
2021/07/08 00:41:37;;;;;;;6.40;3.93;;;;;;;;;;5033435;28;20696;-63
2021/07/08 00:44:02;;;;;;;12.15;3.80;;;;;;;;;;5032953;28;20291;-63
2021/07/08 00:46:27;;;;;;;13.63;4.10;;;;;;;;;;5032913;28;20017;-63
2021/07/08 00:48:52;;;;;;;7.55;3.92;;;;;;;;;;5034787;28;20021;-63
2021/07/08 00:51:17;;;;;;;12.90;4.17;;;;;;;;;;5040460;28;20017;-63
2021/07/08 00:53:43;;;;;;;11.00;3.95;;;;;;;;;;5033152;28;20264;-63
2021/07/08 00:56:09;;;;;;;14.68;3.70;;;;;;;;;;5032098;28;20021;-63
2021/07/08 00:58:34;;;;;;;9.65;4.00;;;;;;;;;;5032712;28;20029;-63
2021/07/08 01:00:59;;;;;;;14.80;4.93;;;;;;;;;;5032289;28;20421;-63
2021/07/08 01:03:25;;;;;;;9.07;3.70;;;;;;;;;;5031450;28;20287;-63
2021/07/08 01:05:52;;;;;;;13.20;4.28;;;;;;;;;;5032227;28;20026;-64
2021/07/08 01:08:17;;;;;;;7.00;3.80;;;;;;;;;;5032985;28;20053;-63
2021/07/08 01:10:43;;;;;;;12.20;3.95;;;;;;;;;;5049076;28;20048;-64
2021/07/08 01:13:09;;;;;;;8.05;3.60;;;;;;;;;;5033913;28;20047;-64
2021/07/08 01:15:34;;;;;;;10.63;4.20;;;;;;;;;;5032262;28;20486;-64
2021/07/08 01:17:59;;;;;;;8.02;4.05;;;;;;;;;;5042644;28;20021;-64
2021/07/08 01:20:26;;;;;;;8.63;4.05;;;;;;;;;;5046952;28;20360;-64
2021/07/08 01:22:57;;;;;;;10.05;3.63;;;;;;;;;;5024997;28;20036;-63
2021/07/08 01:25:23;;;;;;;7.47;4.13;;;;;;;;;;5032403;28;20029;-63
2021/07/08 01:27:48;;;;;;;12.07;4.03;;;;;;;;;;5030992;28;20017;-64
2021/07/08 01:30:14;;;;;;;7.37;3.67;;;;;;;;;;5032038;28;20025;-63
2021/07/08 01:32:39;;;;;;;10.02;4.10;;;;;;;;;;5041096;28;20268;-63
2021/07/08 01:35:05;;;;;;;8.50;3.90;;;;;;;;;;5036689;28;20284;-64
2021/07/08 01:37:30;;;;;;;22.50;4.35;;;;;;;;;;5035505;28;20279;-64
2021/07/08 01:39:59;;;;;;;7.63;4.20;;;;;;;;;;5031744;28;20025;-64
2021/07/08 01:42:24;;;;;;;7.45;3.92;;;;;;;;;;5031975;28;20021;-63
2021/07/08 01:44:50;;;;;;;9.75;4.25;;;;;;;;;;5031438;28;20036;-64
2021/07/08 01:47:15;;;;;;;10.40;4.72;;;;;;;;;;5031526;28;20017;-63
2021/07/08 01:49:40;;;;;;;11.60;4.32;;;;;;;;;;5032012;28;20592;-63
2021/07/08 01:52:06;;;;;;;7.00;4.10;;;;;;;;;;5031391;28;20055;-63
2021/07/08 01:54:31;;;;;;;12.88;3.88;;;;;;;;;;5031823;28;20030;-63
2021/07/08 01:56:56;;;;;;;14.48;3.95;;;;;;;;;;5031243;28;20112;-63
2021/07/08 01:59:21;;;;;;;13.00;4.22;;;;;;;;;;5031125;28;20112;-63
2021/07/08 02:01:46;;;;;;;12.73;5.07;;;;;;;;;;5034932;28;20017;-64
2021/07/08 02:04:12;;;;;;;11.93;4.70;;;;;;;;;;5030131;28;20030;-64
2021/07/08 02:06:37;;;;;;;8.80;4.27;;;;;;;;;;5031277;28;20280;-64
2021/07/08 02:09:04;;;;;;;17.55;4.15;;;;;;;;;;5030969;28;20761;-64
2021/07/08 02:11:31;;;;;;;11.85;4.35;;;;;;;;;;5031277;28;20136;-64
2021/07/08 02:13:56;;;;;;;9.82;4.03;;;;;;;;;;5030563;28;20138;-64
2021/07/08 02:16:21;;;;;;;7.77;3.77;;;;;;;;;;5031581;28;20076;-64
2021/07/08 02:18:46;;;;;;;14.23;4.40;;;;;;;;;;5030915;28;20298;-64
2021/07/08 02:21:12;;;;;;;11.82;4.07;;;;;;;;;;5030194;28;20291;-64
2021/07/08 02:23:38;;;;;;;8.38;3.85;;;;;;;;;;5031229;28;20108;-63
2021/07/08 02:26:06;;;;;;;10.45;4.22;;;;;;;;;;5030904;28;20017;-63
2021/07/08 02:28:32;;;;;;;11.30;4.30;;;;;;;;;;5030634;28;20025;-64
2021/07/08 02:30:57;;;;;;;8.77;3.97;;;;;;;;;;5030669;28;20501;-64
2021/07/08 02:33:23;;;;;;;10.80;3.72;;;;;;;;;;5031238;28;20025;-63
2021/07/08 02:35:48;;;;;;;17.00;4.82;;;;;;;;;;5030486;28;20052;-64
2021/07/08 02:38:13;;;;;;;13.17;4.67;;;;;;;;;;5030281;28;20036;-64
2021/07/08 02:40:39;;;;;;;10.48;4.40;;;;;;;;;;5029048;28;20345;-64
2021/07/08 02:43:05;;;;;;;17.52;4.53;;;;;;;;;;5030701;28;20033;-64
2021/07/08 02:45:31;;;;;;;9.57;3.90;;;;;;;;;;5031126;28;20048;-64
2021/07/08 02:47:57;;;;;;;9.85;4.53;;;;;;;;;;5030774;28;20378;-63
2021/07/08 02:50:23;;;;;;;10.68;4.30;;;;;;;;;;5031222;28;20025;-64
2021/07/08 02:52:49;;;;;;;10.27;4.32;;;;;;;;;;5030764;28;20544;-64
2021/07/08 02:55:15;;;;;;;12.40;5.00;;;;;;;;;;5029612;28;20029;-64
2021/07/08 02:57:41;;;;;;;11.80;4.40;;;;;;;;;;5030659;28;20017;-64
2021/07/08 03:00:07;;;;;;;5.72;4.15;;;;;;;;;;5030740;28;20075;-64
2021/07/08 03:02:32;;;;;;;8.30;4.72;;;;;;;;;;5030712;28;20056;-63
2021/07/08 03:04:58;;;;;;;8.52;4.43;;;;;;;;;;5030105;28;20021;-63
2021/07/08 03:07:23;;;;;;;7.20;4.72;;;;;;;;;;5028647;28;20056;-64
2021/07/08 03:09:48;;;;;;;12.43;4.03;;;;;;;;;;5030299;28;20025;-64
2021/07/08 03:12:14;;;;;;;7.57;4.67;;;;;;;;;;5030126;28;20276;-64
2021/07/08 03:14:39;;;;;;;14.48;4.82;;;;;;;;;;5029403;28;20363;-64
2021/07/08 03:17:04;;;;;;;8.98;4.20;;;;;;;;;;5029486;28;20139;-64
2021/07/08 03:19:29;;;;;;;12.05;4.40;;;;;;;;;;5029983;28;20439;-64
2021/07/08 03:21:55;;;;;;;10.50;4.50;;;;;;;;;;5030111;28;20030;-64
2021/07/08 03:24:20;;;;;;;8.88;4.15;;;;;;;;;;5030494;28;20767;-64
2021/07/08 03:26:45;;;;;;;8.82;4.38;;;;;;;;;;5029350;28;20048;-64
2021/07/08 03:29:10;;;;;;;7.33;4.40;;;;;;;;;;5030631;28;20679;-64
2021/07/08 03:31:35;;;;;;;9.00;4.33;;;;;;;;;;5030127;28;20279;-64
2021/07/08 03:34:01;;;;;;;11.37;5.07;;;;;;;;;;5030019;28;20271;-64
2021/07/08 03:36:26;;;;;;;7.70;4.70;;;;;;;;;;5030041;28;20629;-63
2021/07/08 03:38:51;;;;;;;11.80;4.90;;;;;;;;;;5030168;28;20141;-63
2021/07/08 03:41:16;;;;;;;7.40;4.25;;;;;;;;;;5029911;28;20033;-63
2021/07/08 03:43:41;;;;;;;10.37;4.70;;;;;;;;;;5030176;28;20022;-64
2021/07/08 03:46:07;;;;;;;8.93;4.28;;;;;;;;;;5029802;28;20264;-63
2021/07/08 03:48:32;;;;;;;9.23;4.50;;;;;;;;;;5030283;28;20030;-63
2021/07/08 03:50:58;;;;;;;12.65;4.85;;;;;;;;;;5030350;28;20252;-63
2021/07/08 03:53:23;;;;;;;6.50;4.40;;;;;;;;;;5029519;28;21854;-64
2021/07/08 03:55:48;;;;;;;17.58;4.53;;;;;;;;;;5029905;28;20037;-64
2021/07/08 03:58:13;;;;;;;13.43;4.40;;;;;;;;;;5029976;28;20037;-64
2021/07/08 04:00:40;;;;;;;14.50;5.35;;;;;;;;;;5029575;28;20275;-64
2021/07/08 04:03:06;;;;;;;9.70;4.15;;;;;;;;;;5029728;28;20025;-64
2021/07/08 04:05:31;;;;;;;7.53;4.60;;;;;;;;;;5029186;28;20021;-63
2021/07/08 04:07:56;;;;;;;12.60;4.53;;;;;;;;;;5029699;28;20024;-64
2021/07/08 04:10:22;;;;;;;7.87;4.80;;;;;;;;;;5033940;28;20473;-64
2021/07/08 04:12:47;;;;;;;8.60;4.72;;;;;;;;;;5036338;28;20287;-64
2021/07/08 04:15:12;;;;;;;10.40;4.57;;;;;;;;;;5029441;28;20792;-64
2021/07/08 04:17:37;;;;;;;13.43;4.75;;;;;;;;;;5030041;28;20029;-64
2021/07/08 04:20:07;;;;;;;6.07;4.03;;;;;;;;;;5029826;28;20021;-64
2021/07/08 04:22:32;;;;;;;13.73;4.80;;;;;;;;;;5026438;28;20017;-63
2021/07/08 04:24:57;;;;;;;9.88;3.92;;;;;;;;;;5029011;28;20028;-64
2021/07/08 04:27:22;;;;;;;8.05;4.43;;;;;;;;;;5029781;28;20025;-63
2021/07/08 04:29:48;;;;;;;12.57;5.22;;;;;;;;;;5030035;28;20018;-63
2021/07/08 04:32:13;;;;;;;9.73;4.45;;;;;;;;;;5029446;28;20037;-63
2021/07/08 04:34:39;;;;;;;8.35;4.35;;;;;;;;;;5029085;28;20029;-63
2021/07/08 04:37:05;;;;;;;17.55;4.70;;;;;;;;;;5032362;28;20034;-63
2021/07/08 04:39:30;;;;;;;9.43;4.30;;;;;;;;;;5033168;28;20544;-63
2021/07/08 04:41:55;;;;;;;10.13;5.17;;;;;;;;;;5033125;28;20358;-63
2021/07/08 04:44:20;;;;;;;6.18;4.18;;;;;;;;;;5033208;28;20268;-63
2021/07/08 04:46:45;;;;;;;9.60;4.87;;;;;;;;;;5032338;28;20025;-63
2021/07/08 04:49:11;;;;;;;12.50;4.63;;;;;;;;;;5033088;28;20811;-63
2021/07/08 04:51:37;;;;;;;12.63;4.22;;;;;;;;;;5031303;28;20272;-63
2021/07/08 04:54:02;;;;;;;10.48;4.57;;;;;;;;;;5032682;28;20359;-63
2021/07/08 04:56:27;;;;;;;9.60;4.40;;;;;;;;;;5032878;28;20029;-63
2021/07/08 04:58:52;;;;;;;13.38;4.50;;;;;;;;;;5032428;28;20358;-63
2021/07/08 05:01:17;;;;;;;13.77;4.73;;;;;;;;;;5032065;28;20025;-63
2021/07/08 05:03:43;;;;;;;10.30;4.83;;;;;;;;;;5033250;28;20260;-63
2021/07/08 05:06:08;;;;;;;11.97;4.50;;;;;;;;;;5032777;28;20335;-63
2021/07/08 05:08:33;;;;;;;17.33;5.00;;;;;;;;;;5032877;28;20268;-64
2021/07/08 05:10:58;;;;;;;14.75;4.63;;;;;;;;;;5032473;28;20039;-63
2021/07/08 05:13:23;;;;;;;17.83;4.72;;;;;;;;;;5032387;28;20443;-63
2021/07/08 05:15:49;;;;;;;9.98;4.97;;;;;;;;;;5032166;28;20714;-63
2021/07/08 05:18:14;;;;;;;9.80;4.97;;;;;;;;;;5032401;28;20608;-63
2021/07/08 05:20:40;;;;;;;9.90;4.50;;;;;;;;;;5032382;28;20283;-63
2021/07/08 05:23:14;;;;;;;8.23;4.35;;;;;;;;;;5032397;28;20284;-64
2021/07/08 05:25:39;;;;;;;7.90;4.28;;;;;;;;;;5032168;28;20022;-63
2021/07/08 05:28:04;;;;;;;6.90;4.32;;;;;;;;;;5031594;28;20216;-64
2021/07/08 05:30:30;;;;;;;9.20;4.17;;;;;;;;;;5032145;28;20014;-63
2021/07/08 05:32:57;;;;;;;19.02;5.13;;;;;;;;;;5031898;28;20326;-63
2021/07/08 05:35:22;;;;;;;6.78;4.03;;;;;;;;;;5032100;28;20092;-63
2021/07/08 05:37:48;;;;;;;12.87;4.87;;;;;;;;;;5032113;28;20029;-63
2021/07/08 05:40:14;;;;;;;9.70;4.85;;;;;;;;;;5032093;28;20651;-63
2021/07/08 05:42:39;;;;;;;8.10;4.60;;;;;;;;;;5031560;28;20113;-64
2021/07/08 05:45:06;;;;;;;11.55;4.72;;;;;;;;;;5031333;28;20068;-63
2021/07/08 05:47:31;;;;;;;9.93;4.40;;;;;;;;;;5031155;28;20025;-63
2021/07/08 05:49:57;;;;;;;7.07;5.15;;;;;;;;;;5031475;28;20535;-63
2021/07/08 05:52:22;;;;;;;10.45;4.47;;;;;;;;;;5031406;28;20024;-63
2021/07/08 05:54:47;;;;;;;10.88;4.55;;;;;;;;;;5030551;28;20036;-63
2021/07/08 05:57:12;;;;;;;8.55;4.40;;;;;;;;;;5031422;28;20029;-64
2021/07/08 05:59:37;;;;;;;9.53;4.23;;;;;;;;;;5031180;28;20429;-63
2021/07/08 06:02:03;;;;;;;10.68;4.05;;;;;;;;;;5030930;28;20276;-63
2021/07/08 06:04:28;;;;;;;15.18;5.22;;;;;;;;;;5031780;28;20118;-63
2021/07/08 06:06:53;;;;;;;12.75;4.88;;;;;;;;;;5030060;28;20121;-63
2021/07/08 06:09:19;;;;;;;11.02;4.55;;;;;;;;;;5024339;28;20080;-63
2021/07/08 06:11:44;;;;;;;10.90;4.90;;;;;;;;;;5030025;28;20034;-64
2021/07/08 06:14:09;;;;;;;10.02;4.13;;;;;;;;;;5030326;28;20318;-63
2021/07/08 06:16:34;;;;;;;10.90;4.70;;;;;;;;;;5029895;28;20033;-63
2021/07/08 06:18:59;;;;;;;14.25;4.95;;;;;;;;;;5028142;28;20354;-63
2021/07/08 06:21:25;;;;;;;10.88;5.00;;;;;;;;;;5030660;28;20067;-64
2021/07/08 06:23:51;;;;;;;8.67;4.13;;;;;;;;;;5030466;28;20326;-63
2021/07/08 06:26:16;;;;;;;12.07;5.18;;;;;;;;;;5030789;28;20339;-63
2021/07/08 06:28:41;;;;;;;12.03;5.67;;;;;;;;;;5031536;28;20033;-63
2021/07/08 06:31:06;;;;;;;9.20;4.57;;;;;;;;;;5030107;28;20570;-64
2021/07/08 06:33:32;;;;;;;8.07;4.93;;;;;;;;;;5020146;28;20048;-63
2021/07/08 06:35:57;;;;;;;9.63;5.60;;;;;;;;;;5031179;28;20340;-63
2021/07/08 06:38:22;;;;;;;14.00;4.73;;;;;;;;;;5031162;28;20744;-63
2021/07/08 06:40:49;;;;;;;8.27;4.22;;;;;;;;;;5030515;28;20268;-63
2021/07/08 06:43:14;;;;;;;10.02;5.03;;;;;;;;;;5031150;28;20030;-63
2021/07/08 06:45:39;;;;;;;14.00;5.05;;;;;;;;;;5030873;28;20024;-63
2021/07/08 06:48:06;;;;;;;9.52;4.15;;;;;;;;;;5030974;28;20378;-64
2021/07/08 06:50:34;;;;;;;9.18;4.55;;;;;;;;;;5030883;28;20013;-64
2021/07/08 06:53:00;;;;;;;14.82;4.45;;;;;;;;;;5030771;28;20367;-63
2021/07/08 06:55:25;;;;;;;7.65;4.32;;;;;;;;;;5030616;28;20109;-63
2021/07/08 06:57:50;;;;;;;11.73;4.20;;;;;;;;;;5031141;28;20174;-63
2021/07/08 07:00:20;;;;;;;8.00;4.05;;;;;;;;;;5030453;28;21011;-63
2021/07/08 07:02:46;;;;;;;11.13;4.73;;;;;;;;;;5028747;28;20082;-63
2021/07/08 07:05:11;;;;;;;9.05;5.28;;;;;;;;;;5027432;28;20468;-64
2021/07/08 07:07:36;;;;;;;8.00;4.00;;;;;;;;;;5028839;28;20436;-64
2021/07/08 07:10:01;;;;;;;9.33;3.50;;;;;;;;;;5028530;28;20032;-64
2021/07/08 07:12:26;;;;;;;12.57;3.70;;;;;;;;;;5028873;28;20287;-64
2021/07/08 07:14:52;;;;;;;10.23;3.30;;;;;;;;;;5029446;28;20029;-64
2021/07/08 07:17:17;;;;;;;11.90;3.72;;;;;;;;;;5025738;28;20274;-64
2021/07/08 07:19:42;;;;;;;9.70;3.17;;;;;;;;;;5025490;28;20409;-64
2021/07/08 07:22:07;;;;;;;10.38;3.63;;;;;;;;;;5029460;28;20306;-64
2021/07/08 07:24:33;;;;;;;13.93;3.50;;;;;;;;;;5029008;28;20022;-64
2021/07/08 07:26:58;;;;;;;8.87;3.30;;;;;;;;;;5028674;28;20252;-64
2021/07/08 07:29:23;;;;;;;5.82;2.67;;;;;;;;;;5029724;28;20303;-64
2021/07/08 07:31:48;;;;;;;8.97;3.27;;;;;;;;;;5029549;28;20065;-63
2021/07/08 07:34:15;;;;;;;8.80;2.90;;;;;;;;;;5029451;28;20745;-63
2021/07/08 07:36:40;;;;;;;6.47;2.60;;;;;;;;;;5029057;28;20021;-64
2021/07/08 07:39:05;;;;;;;13.83;3.00;;;;;;;;;;5027626;28;20103;-64
2021/07/08 07:41:31;;;;;;;6.83;2.50;;;;;;;;;;5024270;28;20780;-64
2021/07/08 07:43:56;;;;;;;5.07;2.35;;;;;;;;;;5032256;28;20342;-64
2021/07/08 07:46:21;;;;;;;6.73;3.10;;;;;;;;;;5029396;28;20025;-64
2021/07/08 07:48:47;;;;;;;8.90;2.92;;;;;;;;;;5029339;28;20295;-64
2021/07/08 07:51:12;;;;;;;6.22;2.67;;;;;;;;;;5029046;28;20017;-64
2021/07/08 07:53:37;;;;;;;10.70;2.88;;;;;;;;;;5029839;28;20052;-64
2021/07/08 07:56:02;;;;;;;15.43;2.70;;;;;;;;;;5029455;28;20037;-64
2021/07/08 07:58:30;;;;;;;10.75;3.47;;;;;;;;;;5029518;28;20279;-64
2021/07/08 08:00:56;;;;;;;5.68;2.80;;;;;;;;;;5029525;28;20140;-64
2021/07/08 08:03:22;;;;;;;10.52;2.90;;;;;;;;;;5029902;28;20481;-64
2021/07/08 08:08:42;;;;;;;7.70;2.85;;;;;;;;;;4973379;28;20504;-64
2021/07/08 08:11:08;;;;;;;11.13;3.50;;;;;;;;;;5027898;28;20029;-64
2021/07/08 08:13:34;;;;;;;8.63;3.53;;;;;;;;;;5033952;28;20029;-64
2021/07/08 08:15:59;;;;;;;9.75;3.67;;;;;;;;;;5035799;28;20027;-64
2021/07/08 08:18:25;;;;;;;8.38;2.92;;;;;;;;;;5033317;28;20026;-64
2021/07/08 08:20:51;;;;;;;8.68;3.58;;;;;;;;;;5032590;28;20043;-64
2021/07/08 08:23:16;;;;;;;7.35;4.03;;;;;;;;;;5033392;28;20026;-64
2021/07/08 08:25:42;;;;;;;8.77;3.20;;;;;;;;;;5031307;28;20023;-64
2021/07/08 08:28:08;;;;;;;10.13;3.50;;;;;;;;;;5032860;28;20552;-64
2021/07/08 08:30:34;;;;;;;10.00;3.35;;;;;;;;;;5034173;28;20041;-64
2021/07/08 08:32:59;;;;;;;8.43;3.17;;;;;;;;;;5033632;28;20053;-64
2021/07/08 08:35:24;;;;;;;9.03;3.40;;;;;;;;;;5033045;28;20036;-64
2021/07/08 08:37:50;;;;;;;6.70;3.40;;;;;;;;;;5033209;28;20077;-64
2021/07/08 08:40:15;;;;;;;10.20;3.42;;;;;;;;;;5033077;28;20087;-64
2021/07/08 08:42:41;;;;;;;9.38;2.90;;;;;;;;;;5033276;28;20029;-64
2021/07/08 08:45:11;;;;;;;15.32;3.20;;;;;;;;;;5032094;28;20018;-64
2021/07/08 08:47:50;;;;;;;16.67;3.38;;;;;;;;;;5033759;28;20048;-64
2021/07/08 08:50:16;;;;;;;11.35;4.10;;;;;;;;;;5045035;28;20142;-64
2021/07/08 08:52:41;;;;;;;11.90;4.37;;;;;;;;;;5032889;28;20513;-64
2021/07/08 08:55:06;;;;;;;8.30;2.75;;;;;;;;;;5031981;28;20268;-63
2021/07/08 08:57:31;;;;;;;10.98;2.60;;;;;;;;;;5030766;28;20025;-63
2021/07/08 08:59:56;;;;;;;7.63;2.60;;;;;;;;;;5033077;28;20068;-63
2021/07/08 09:02:22;;;;;;;7.67;2.70;;;;;;;;;;5032083;28;20083;-63
2021/07/08 09:04:47;;;;;;;8.93;2.65;;;;;;;;;;5032588;28;20520;-63
2021/07/08 09:07:26;;;;;;;8.30;2.45;;;;;;;;;;5031811;28;20029;-64
2021/07/08 09:09:56;;;;;;;5.13;2.65;;;;;;;;;;5032096;28;20029;-64
2021/07/08 09:12:24;;;;;;;9.80;2.88;;;;;;;;;;5032308;28;20017;-64
2021/07/08 09:14:50;;;;;;;9.88;3.10;;;;;;;;;;5031885;28;20034;-63
2021/07/08 09:17:17;;;;;;;9.32;3.00;;;;;;;;;;5031960;28;20030;-63
2021/07/08 09:19:42;;;;;;;4.47;2.75;;;;;;;;;;5031256;28;20457;-63
2021/07/08 09:22:07;;;;;;;9.47;3.27;;;;;;;;;;5031280;28;20052;-64
2021/07/08 09:24:34;;;;;;;12.97;3.57;;;;;;;;;;5032431;28;20014;-65
2021/07/08 09:27:02;;;;;;;9.43;3.10;;;;;;;;;;5031922;28;20259;-64
2021/07/08 09:29:31;;;;;;;9.15;2.60;;;;;;;;;;5031211;28;20086;-64
2021/07/08 09:32:04;;;;;;;7.00;2.40;;;;;;;;;;5032211;28;20018;-64
2021/07/08 09:34:36;;;;;;;10.98;2.97;;;;;;;;;;5029798;28;20017;-64
2021/07/08 09:37:03;;;;;;;9.25;2.50;;;;;;;;;;5032858;28;20025;-64
2021/07/08 09:39:35;;;;;;;6.25;2.88;;;;;;;;;;5031594;28;20096;-64
2021/07/08 09:42:00;;;;;;;4.85;2.10;;;;;;;;;;5024735;28;20482;-64
2021/07/08 09:44:27;;;;;;;6.35;2.50;;;;;;;;;;5032200;28;20100;-64
2021/07/08 09:46:53;;;;;;;9.30;2.40;;;;;;;;;;5030467;28;20017;-64
2021/07/08 09:49:18;;;;;;;8.68;2.85;;;;;;;;;;5031614;28;20043;-64
2021/07/08 09:51:45;;;;;;;8.98;3.00;;;;;;;;;;5030975;28;20021;-64
2021/07/08 09:57:12;;;;;;;8.68;2.97;;;;;;;;;;5031858;28;20035;-64
2021/07/08 09:59:35;;;;;;;6.55;2.95;;;;;;;;;;5030600;28;20033;-64
2021/07/08 10:02:00;;;;;;;10.20;2.72;;;;;;;;;;5030401;28;20017;-65
2021/07/08 10:04:26;;;;;;;5.72;2.78;;;;;;;;;;5031183;28;20267;-65
2021/07/08 10:06:51;;;;;;;9.60;2.80;;;;;;;;;;5030660;28;20044;-64
2021/07/08 10:09:18;;;;;;;5.97;2.45;;;;;;;;;;5042822;28;20272;-64
2021/07/08 10:11:51;;;;;;;4.55;2.45;;;;;;;;;;5031940;28;20020;-64
2021/07/08 10:14:17;;;;;;;6.10;2.40;;;;;;;;;;5031420;28;20048;-64
2021/07/08 10:16:46;;;;;;;9.70;2.67;;;;;;;;;;5031642;28;20527;-64
2021/07/08 10:19:13;;;;;;;6.25;3.25;;;;;;;;;;5031262;28;20104;-64
2021/07/08 10:21:38;;;;;;;8.70;2.30;;;;;;;;;;5031430;28;20041;-65
2021/07/08 10:24:04;;;;;;;11.65;2.33;;;;;;;;;;5031553;28;20520;-64
2021/07/08 10:26:29;;;;;;;4.82;2.40;;;;;;;;;;5031395;28;20485;-64
2021/07/08 10:28:55;;;;;;;11.13;2.40;;;;;;;;;;5031699;28;20024;-64
2021/07/08 10:31:22;;;;;;;11.70;2.80;;;;;;;;;;5031216;28;20274;-65
2021/07/08 10:34:06;;;;;;;7.30;2.20;;;;;;;;;;5030856;28;20033;-64
2021/07/08 10:36:31;;;;;;;6.93;2.22;;;;;;;;;;5031393;28;20013;-64
2021/07/08 10:39:07;;;;;;;6.65;2.25;;;;;;;;;;5031471;28;20014;-64
2021/07/08 10:41:35;;;;;;;11.90;2.67;;;;;;;;;;5042074;28;20025;-64
2021/07/08 10:44:00;;;;;;;10.60;4.30;;;;;;;;;;5031140;28;20026;-64
2021/07/08 10:46:35;;;;;;;7.90;3.00;;;;;;;;;;5043071;28;20024;-64
2021/07/08 10:49:11;;;;;;;15.15;3.92;;;;;;;;;;5030916;28;20267;-64
2021/07/08 10:51:38;;;;;;;7.57;3.28;;;;;;;;;;5030935;28;20501;-65
2021/07/08 10:54:23;;;;;;;11.20;2.63;;;;;;;;;;5030744;28;20022;-64
2021/07/08 10:56:48;;;;;;;8.27;3.63;;;;;;;;;;5030565;28;20021;-64
2021/07/08 10:59:14;;;;;;;13.27;3.30;;;;;;;;;;5030530;28;20028;-64
2021/07/08 11:01:40;;;;;;;22.25;4.00;;;;;;;;;;5030801;28;20263;-64
2021/07/08 11:04:05;;;;;;;12.55;2.80;;;;;;;;;;5030540;28;20100;-64
2021/07/08 11:06:38;;;;;;;21.03;3.57;;;;;;;;;;5072960;22;20045;-65
2021/07/08 11:09:18;;;;;;;6.35;2.97;;;;;;;;;;5070842;28;20430;-65
2021/07/08 11:11:46;;;;;;;15.75;3.75;;;;;;;;;;5070327;28;20461;-65
2021/07/08 11:14:14;;;;;;;6.55;3.05;;;;;;;;;;5070698;28;20031;-65
2021/07/08 11:16:43;;;;;;;10.57;3.03;;;;;;;;;;5070592;28;20392;-65
2021/07/08 11:19:11;;;;;;;9.07;3.10;;;;;;;;;;5050630;28;20111;-65
2021/07/08 11:21:55;;;;;;;14.73;3.47;;;;;;;;;;5052359;28;20021;-65
2021/07/08 11:24:26;;;;;;;9.90;4.03;;;;;;;;;;5050661;28;20017;-65
2021/07/08 11:27:03;;;;;;;11.10;2.92;;;;;;;;;;5050087;28;20456;-66
2021/07/08 11:29:40;;;;;;;9.23;3.33;;;;;;;;;;5050681;28;20075;-66
2021/07/08 11:32:20;;;;;;;7.60;2.83;;;;;;;;;;5059472;28;20388;-66
2021/07/08 11:34:58;;;;;;;11.77;2.85;;;;;;;;;;5050260;28;20025;-66
2021/07/08 11:37:27;;;;;;;8.48;3.47;;;;;;;;;;5050449;28;20032;-66
2021/07/08 11:39:54;;;;;;;10.10;3.35;;;;;;;;;;5050348;28;20049;-66
2021/07/08 11:42:21;;;;;;;7.38;3.50;;;;;;;;;;5030439;28;20466;-66
2021/07/08 11:44:46;;;;;;;7.63;3.15;;;;;;;;;;5029604;28;20496;-66
2021/07/08 11:47:11;;;;;;;13.20;3.60;;;;;;;;;;5044674;28;20017;-66
2021/07/08 11:49:37;;;;;;;8.90;3.53;;;;;;;;;;5047975;28;20022;-66
2021/07/08 11:52:15;;;;;;;11.02;3.00;;;;;;;;;;5069047;28;20025;-66
2021/07/08 11:55:07;;;;;;;11.57;3.28;;;;;;;;;;5074504;28;20416;-66
2021/07/08 11:57:49;;;;;;;8.18;3.20;;;;;;;;;;5072156;28;20039;-66
2021/07/08 12:00:25;;;;;;;7.50;3.28;;;;;;;;;;5071840;28;20016;-66
2021/07/08 12:02:50;;;;;;;13.30;3.35;;;;;;;;;;5053798;28;20055;-66
2021/07/08 12:05:16;;;;;;;9.17;3.43;;;;;;;;;;5050853;28;20488;-66
2021/07/08 12:07:42;;;;;;;18.83;4.63;;;;;;;;;;5049059;28;20029;-66
2021/07/08 12:10:08;;;;;;;12.07;3.05;;;;;;;;;;5046821;28;20401;-66
2021/07/08 12:12:33;;;;;;;10.30;3.50;;;;;;;;;;5055429;28;20021;-66
2021/07/08 12:14:59;;;;;;;12.77;3.75;;;;;;;;;;5053722;28;20024;-66
2021/07/08 12:17:28;;;;;;;13.80;4.20;;;;;;;;;;5053613;28;20104;-66
2021/07/08 12:20:03;;;;;;;16.17;3.40;;;;;;;;;;5048874;28;20033;-66
2021/07/08 12:22:28;;;;;;;10.30;4.15;;;;;;;;;;5058857;28;20432;-66
2021/07/08 12:24:54;;;;;;;7.83;3.67;;;;;;;;;;5053546;28;20013;-66
2021/07/08 12:27:19;;;;;;;11.10;3.93;;;;;;;;;;5053926;28;20248;-66
2021/07/08 12:29:44;;;;;;;10.90;3.40;;;;;;;;;;5053396;28;20255;-66
2021/07/08 12:32:15;;;;;;;10.60;4.00;;;;;;;;;;5070892;28;20266;-66
2021/07/08 12:34:53;;;;;;;9.77;3.45;;;;;;;;;;5055194;28;20116;-66
2021/07/08 12:37:21;;;;;;;7.32;3.13;;;;;;;;;;5051862;28;20037;-66
2021/07/08 12:39:47;;;;;;;10.75;3.20;;;;;;;;;;5049718;28;20025;-66
2021/07/08 12:42:32;;;;;;;9.30;3.33;;;;;;;;;;5067347;28;20066;-66
2021/07/08 12:44:58;;;;;;;10.23;2.97;;;;;;;;;;5048531;28;20032;-66
2021/07/08 12:47:24;;;;;;;9.77;2.85;;;;;;;;;;5048822;28;20074;-66
2021/07/08 12:49:50;;;;;;;11.07;3.00;;;;;;;;;;5044440;28;20025;-66
2021/07/08 12:52:16;;;;;;;9.02;3.63;;;;;;;;;;5050922;28;20087;-66
2021/07/08 12:54:41;;;;;;;9.82;2.78;;;;;;;;;;5047707;28;20183;-66
2021/07/08 12:57:08;;;;;;;7.82;2.42;;;;;;;;;;5051767;28;20127;-66
2021/07/08 12:59:33;;;;;;;8.52;2.88;;;;;;;;;;5053072;28;20031;-66
2021/07/08 13:01:58;;;;;;;12.77;3.00;;;;;;;;;;5061714;28;20388;-66
2021/07/08 13:04:36;;;;;;;9.32;2.50;;;;;;;;;;5044464;28;20063;-67
2021/07/08 13:07:02;;;;;;;4.68;2.20;;;;;;;;;;5048338;28;20183;-66
2021/07/08 13:09:28;;;;;;;4.40;2.13;;;;;;;;;;5052587;28;20015;-66
2021/07/08 13:11:54;;;;;;;7.00;2.30;;;;;;;;;;5053116;28;20031;-66
2021/07/08 13:14:20;;;;;;;8.20;2.47;;;;;;;;;;5063468;28;20430;-66
2021/07/08 13:17:03;;;;;;;5.63;2.20;;;;;;;;;;5072114;28;20038;-66
2021/07/08 13:19:28;;;;;;;6.95;2.30;;;;;;;;;;5048040;28;20067;-66
2021/07/08 13:21:54;;;;;;;13.48;3.05;;;;;;;;;;5056396;28;20091;-66
2021/07/08 13:24:23;;;;;;;9.47;2.53;;;;;;;;;;5052770;28;20020;-67
2021/07/08 13:26:48;;;;;;;6.97;2.53;;;;;;;;;;5052007;28;20252;-66
2021/07/08 13:29:13;;;;;;;25.70;3.35;;;;;;;;;;5064989;28;20032;-66
2021/07/08 13:31:39;;;;;;;9.85;2.80;;;;;;;;;;5072340;28;20012;-66
2021/07/08 13:34:04;;;;;;;9.15;2.78;;;;;;;;;;5064305;28;20486;-66
2021/07/08 13:36:33;;;;;;;12.57;2.50;;;;;;;;;;5052116;28;20423;-66
2021/07/08 13:39:10;;;;;;;6.22;2.40;;;;;;;;;;5062461;28;20431;-66
2021/07/08 13:41:55;;;;;;;7.07;3.03;;;;;;;;;;5062415;28;20025;-66
2021/07/08 13:44:25;;;;;;;6.20;2.70;;;;;;;;;;5048121;28;20091;-66
2021/07/08 13:47:04;;;;;;;6.93;2.15;;;;;;;;;;5047273;28;20036;-66
2021/07/08 13:49:36;;;;;;;9.98;2.60;;;;;;;;;;5052235;28;20033;-66
2021/07/08 13:52:02;;;;;;;6.72;2.95;;;;;;;;;;5051924;28;20480;-66
2021/07/08 13:54:33;;;;;;;6.72;2.65;;;;;;;;;;5053511;28;20029;-66
2021/07/08 13:56:59;;;;;;;13.68;3.33;;;;;;;;;;5051584;28;20111;-66
2021/07/08 13:59:24;;;;;;;18.83;3.70;;;;;;;;;;5051750;28;20048;-66
2021/07/08 14:01:49;;;;;;;20.65;4.20;;;;;;;;;;5051751;28;20078;-66
2021/07/08 14:04:15;;;;;;;17.77;4.23;;;;;;;;;;5053048;28;20075;-66
2021/07/08 14:06:40;;;;;;;6.35;2.60;;;;;;;;;;5049577;28;20028;-66
2021/07/08 14:09:06;;;;;;;11.20;3.03;;;;;;;;;;5061104;28;20024;-66
2021/07/08 14:11:31;;;;;;;11.13;3.05;;;;;;;;;;5055119;28;20263;-66
2021/07/08 14:13:57;;;;;;;14.23;2.95;;;;;;;;;;5051824;28;20488;-66
2021/07/08 14:16:23;;;;;;;10.50;3.05;;;;;;;;;;5051679;28;20049;-66
2021/07/08 14:18:49;;;;;;;14.02;3.33;;;;;;;;;;5049833;28;20114;-66
2021/07/08 14:21:14;;;;;;;9.57;3.28;;;;;;;;;;5052044;28;20028;-66
2021/07/08 14:23:40;;;;;;;16.38;3.17;;;;;;;;;;5071065;28;20039;-66
2021/07/08 14:26:05;;;;;;;11.40;3.10;;;;;;;;;;5071170;28;20013;-67
2021/07/08 14:28:30;;;;;;;10.85;3.30;;;;;;;;;;5053763;28;20024;-66
2021/07/08 14:30:58;;;;;;;8.07;3.33;;;;;;;;;;5063244;28;20028;-66
2021/07/08 14:33:23;;;;;;;10.10;3.55;;;;;;;;;;5053750;28;20029;-65
2021/07/08 14:35:48;;;;;;;10.73;3.17;;;;;;;;;;5050976;28;20546;-66
2021/07/08 14:38:14;;;;;;;9.03;4.20;;;;;;;;;;5056324;28;20173;-66